sensor_id;sensor_type;location;lat;lon;timestamp;P1;durP1;ratioP1;P2;durP2;ratioP2
43998;SDS011;51319;52.162;5.302;2023-12-04T00:00:21;39.30;;;18.45;;
43998;SDS011;51319;52.162;5.302;2023-12-04T00:02:48;50.28;;;20.10;;
43998;SDS011;51319;52.162;5.302;2023-12-04T00:05:15;43.58;;;18.55;;
43998;SDS011;51319;52.162;5.302;2023-12-04T00:07:42;40.25;;;17.55;;
43998;SDS011;51319;52.162;5.302;2023-12-04T00:10:09;44.65;;;17.88;;
43998;SDS011;51319;52.162;5.302;2023-12-04T00:12:36;39.97;;;18.80;;
43998;SDS011;51319;52.162;5.302;2023-12-04T00:15:03;46.65;;;19.33;;
43998;SDS011;51319;52.162;5.302;2023-12-04T00:17:30;47.72;;;18.92;;
43998;SDS011;51319;52.162;5.302;2023-12-04T00:19:57;42.30;;;17.98;;
43998;SDS011;51319;52.162;5.302;2023-12-04T00:22:25;40.30;;;17.58;;
43998;SDS011;51319;52.162;5.302;2023-12-04T00:24:52;41.45;;;18.67;;
43998;SDS011;51319;52.162;5.302;2023-12-04T00:27:20;35.20;;;16.30;;
43998;SDS011;51319;52.162;5.302;2023-12-04T00:29:47;45.10;;;19.02;;
43998;SDS011;51319;52.162;5.302;2023-12-04T00:32:14;41.75;;;18.23;;
43998;SDS011;51319;52.162;5.302;2023-12-04T00:34:41;36.92;;;17.67;;
43998;SDS011;51319;52.162;5.302;2023-12-04T00:37:08;37.25;;;16.00;;
43998;SDS011;51319;52.162;5.302;2023-12-04T00:39:35;43.47;;;17.65;;
43998;SDS011;51319;52.162;5.302;2023-12-04T00:42:02;43.08;;;18.27;;
43998;SDS011;51319;52.162;5.302;2023-12-04T00:44:29;40.63;;;16.95;;
43998;SDS011;51319;52.162;5.302;2023-12-04T00:46:58;47.20;;;18.70;;
43998;SDS011;51319;52.162;5.302;2023-12-04T00:49:25;45.42;;;17.50;;
43998;SDS011;51319;52.162;5.302;2023-12-04T00:51:53;36.65;;;13.75;;
43998;SDS011;51319;52.162;5.302;2023-12-04T00:54:20;43.17;;;17.52;;
43998;SDS011;51319;52.162;5.302;2023-12-04T00:56:46;47.95;;;18.08;;
43998;SDS011;51319;52.162;5.302;2023-12-04T00:59:13;42.72;;;18.05;;
43998;SDS011;51319;52.162;5.302;2023-12-04T01:01:40;35.90;;;15.13;;
43998;SDS011;51319;52.162;5.302;2023-12-04T01:04:07;43.08;;;19.20;;
43998;SDS011;51319;52.162;5.302;2023-12-04T01:06:34;46.28;;;19.35;;
43998;SDS011;51319;52.162;5.302;2023-12-04T01:09:05;42.10;;;16.92;;
43998;SDS011;51319;52.162;5.302;2023-12-04T01:11:32;48.25;;;19.25;;
43998;SDS011;51319;52.162;5.302;2023-12-04T01:13:59;43.08;;;18.92;;
43998;SDS011;51319;52.162;5.302;2023-12-04T01:16:26;47.15;;;20.88;;
43998;SDS011;51319;52.162;5.302;2023-12-04T01:18:53;35.05;;;15.23;;
43998;SDS011;51319;52.162;5.302;2023-12-04T01:21:21;48.50;;;19.15;;
43998;SDS011;51319;52.162;5.302;2023-12-04T01:23:48;52.55;;;18.38;;
43998;SDS011;51319;52.162;5.302;2023-12-04T01:26:25;49.17;;;21.48;;
43998;SDS011;51319;52.162;5.302;2023-12-04T01:28:53;42.95;;;18.13;;
43998;SDS011;51319;52.162;5.302;2023-12-04T01:31:20;49.05;;;20.30;;
43998;SDS011;51319;52.162;5.302;2023-12-04T01:33:47;43.30;;;18.13;;
43998;SDS011;51319;52.162;5.302;2023-12-04T01:36:14;48.88;;;19.67;;
43998;SDS011;51319;52.162;5.302;2023-12-04T01:38:50;53.42;;;21.45;;
43998;SDS011;51319;52.162;5.302;2023-12-04T01:41:17;51.88;;;21.75;;
43998;SDS011;51319;52.162;5.302;2023-12-04T01:43:45;41.88;;;20.67;;
43998;SDS011;51319;52.162;5.302;2023-12-04T01:46:12;21.52;;;9.35;;
43998;SDS011;51319;52.162;5.302;2023-12-04T01:48:44;51.63;;;20.53;;
43998;SDS011;51319;52.162;5.302;2023-12-04T01:51:16;51.90;;;22.13;;
43998;SDS011;51319;52.162;5.302;2023-12-04T01:53:44;48.63;;;19.08;;
43998;SDS011;51319;52.162;5.302;2023-12-04T01:56:13;40.65;;;19.15;;
43998;SDS011;51319;52.162;5.302;2023-12-04T01:58:41;39.20;;;17.30;;
43998;SDS011;51319;52.162;5.302;2023-12-04T02:01:09;47.45;;;20.77;;
43998;SDS011;51319;52.162;5.302;2023-12-04T02:03:37;45.85;;;19.40;;
43998;SDS011;51319;52.162;5.302;2023-12-04T02:06:10;51.40;;;20.48;;
43998;SDS011;51319;52.162;5.302;2023-12-04T02:08:42;61.80;;;21.55;;
43998;SDS011;51319;52.162;5.302;2023-12-04T02:11:10;56.78;;;21.90;;
43998;SDS011;51319;52.162;5.302;2023-12-04T02:13:40;46.85;;;18.70;;
43998;SDS011;51319;52.162;5.302;2023-12-04T02:16:10;46.25;;;20.20;;
43998;SDS011;51319;52.162;5.302;2023-12-04T02:18:42;47.00;;;20.65;;
43998;SDS011;51319;52.162;5.302;2023-12-04T02:21:09;34.47;;;14.10;;
43998;SDS011;51319;52.162;5.302;2023-12-04T02:23:37;48.20;;;20.00;;
43998;SDS011;51319;52.162;5.302;2023-12-04T02:26:14;49.75;;;20.95;;
43998;SDS011;51319;52.162;5.302;2023-12-04T02:28:51;40.72;;;18.45;;
43998;SDS011;51319;52.162;5.302;2023-12-04T02:31:25;42.65;;;18.92;;
43998;SDS011;51319;52.162;5.302;2023-12-04T02:33:56;39.28;;;18.13;;
43998;SDS011;51319;52.162;5.302;2023-12-04T02:36:30;44.90;;;20.02;;
43998;SDS011;51319;52.162;5.302;2023-12-04T02:39:00;53.58;;;20.45;;
43998;SDS011;51319;52.162;5.302;2023-12-04T02:41:30;52.97;;;20.92;;
43998;SDS011;51319;52.162;5.302;2023-12-04T02:43:58;54.08;;;21.55;;
43998;SDS011;51319;52.162;5.302;2023-12-04T02:46:26;33.78;;;13.13;;
43998;SDS011;51319;52.162;5.302;2023-12-04T02:48:53;45.15;;;19.67;;
43998;SDS011;51319;52.162;5.302;2023-12-04T02:51:23;47.58;;;20.27;;
43998;SDS011;51319;52.162;5.302;2023-12-04T02:53:54;51.33;;;20.10;;
43998;SDS011;51319;52.162;5.302;2023-12-04T02:56:24;47.45;;;19.35;;
43998;SDS011;51319;52.162;5.302;2023-12-04T02:58:51;45.80;;;19.83;;
43998;SDS011;51319;52.162;5.302;2023-12-04T03:01:18;44.03;;;19.13;;
43998;SDS011;51319;52.162;5.302;2023-12-04T03:03:45;53.38;;;21.65;;
43998;SDS011;51319;52.162;5.302;2023-12-04T03:06:16;42.08;;;17.63;;
43998;SDS011;51319;52.162;5.302;2023-12-04T03:08:53;46.08;;;19.02;;
43998;SDS011;51319;52.162;5.302;2023-12-04T03:11:22;39.35;;;15.75;;
43998;SDS011;51319;52.162;5.302;2023-12-04T03:13:49;48.22;;;19.80;;
43998;SDS011;51319;52.162;5.302;2023-12-04T03:16:16;48.78;;;19.25;;
43998;SDS011;51319;52.162;5.302;2023-12-04T03:18:44;39.85;;;16.38;;
43998;SDS011;51319;52.162;5.302;2023-12-04T03:21:12;53.50;;;21.55;;
43998;SDS011;51319;52.162;5.302;2023-12-04T03:23:39;43.30;;;20.10;;
43998;SDS011;51319;52.162;5.302;2023-12-04T03:26:07;45.38;;;20.20;;
43998;SDS011;51319;52.162;5.302;2023-12-04T03:28:34;44.33;;;18.40;;
43998;SDS011;51319;52.162;5.302;2023-12-04T03:31:01;46.38;;;20.73;;
43998;SDS011;51319;52.162;5.302;2023-12-04T03:33:29;36.67;;;17.50;;
43998;SDS011;51319;52.162;5.302;2023-12-04T03:35:58;42.00;;;19.83;;
43998;SDS011;51319;52.162;5.302;2023-12-04T03:38:26;46.70;;;19.27;;
43998;SDS011;51319;52.162;5.302;2023-12-04T03:40:54;46.22;;;19.55;;
43998;SDS011;51319;52.162;5.302;2023-12-04T03:43:21;52.42;;;20.70;;
43998;SDS011;51319;52.162;5.302;2023-12-04T03:45:48;50.22;;;20.20;;
43998;SDS011;51319;52.162;5.302;2023-12-04T03:48:18;44.70;;;20.65;;
43998;SDS011;51319;52.162;5.302;2023-12-04T03:50:46;40.72;;;17.80;;
43998;SDS011;51319;52.162;5.302;2023-12-04T03:53:13;45.55;;;20.20;;
43998;SDS011;51319;52.162;5.302;2023-12-04T03:55:40;36.55;;;17.17;;
43998;SDS011;51319;52.162;5.302;2023-12-04T03:58:08;49.95;;;18.63;;
43998;SDS011;51319;52.162;5.302;2023-12-04T04:00:39;25.33;;;12.17;;
43998;SDS011;51319;52.162;5.302;2023-12-04T04:03:08;28.27;;;13.20;;
43998;SDS011;51319;52.162;5.302;2023-12-04T04:05:41;41.33;;;18.03;;
43998;SDS011;51319;52.162;5.302;2023-12-04T04:08:08;35.40;;;16.50;;
43998;SDS011;51319;52.162;5.302;2023-12-04T04:10:35;33.35;;;15.98;;
43998;SDS011;51319;52.162;5.302;2023-12-04T04:13:03;39.70;;;17.15;;
43998;SDS011;51319;52.162;5.302;2023-12-04T04:15:30;34.67;;;15.77;;
43998;SDS011;51319;52.162;5.302;2023-12-04T04:17:58;36.80;;;18.02;;
43998;SDS011;51319;52.162;5.302;2023-12-04T04:20:25;33.38;;;16.50;;
43998;SDS011;51319;52.162;5.302;2023-12-04T04:22:53;38.60;;;18.02;;
43998;SDS011;51319;52.162;5.302;2023-12-04T04:25:20;36.92;;;16.83;;
43998;SDS011;51319;52.162;5.302;2023-12-04T04:27:52;35.03;;;16.90;;
43998;SDS011;51319;52.162;5.302;2023-12-04T04:30:19;34.72;;;17.25;;
43998;SDS011;51319;52.162;5.302;2023-12-04T04:32:46;36.05;;;16.05;;
43998;SDS011;51319;52.162;5.302;2023-12-04T04:35:13;27.45;;;13.05;;
43998;SDS011;51319;52.162;5.302;2023-12-04T04:37:40;40.17;;;18.10;;
43998;SDS011;51319;52.162;5.302;2023-12-04T04:40:11;40.15;;;17.08;;
43998;SDS011;51319;52.162;5.302;2023-12-04T04:42:38;37.85;;;17.92;;
43998;SDS011;51319;52.162;5.302;2023-12-04T04:45:05;21.92;;;10.60;;
43998;SDS011;51319;52.162;5.302;2023-12-04T04:47:34;34.78;;;16.20;;
43998;SDS011;51319;52.162;5.302;2023-12-04T04:50:01;31.27;;;15.38;;
43998;SDS011;51319;52.162;5.302;2023-12-04T04:52:29;38.45;;;18.95;;
43998;SDS011;51319;52.162;5.302;2023-12-04T04:54:58;33.55;;;16.80;;
43998;SDS011;51319;52.162;5.302;2023-12-04T04:57:28;32.20;;;12.82;;
43998;SDS011;51319;52.162;5.302;2023-12-04T04:59:56;31.30;;;15.88;;
43998;SDS011;51319;52.162;5.302;2023-12-04T05:02:24;34.70;;;15.38;;
43998;SDS011;51319;52.162;5.302;2023-12-04T05:04:51;35.53;;;16.23;;
43998;SDS011;51319;52.162;5.302;2023-12-04T05:07:19;26.65;;;14.30;;
43998;SDS011;51319;52.162;5.302;2023-12-04T05:09:46;34.78;;;14.93;;
43998;SDS011;51319;52.162;5.302;2023-12-04T05:12:14;13.73;;;6.80;;
43998;SDS011;51319;52.162;5.302;2023-12-04T05:14:43;26.20;;;13.18;;
43998;SDS011;51319;52.162;5.302;2023-12-04T05:17:10;31.38;;;15.88;;
43998;SDS011;51319;52.162;5.302;2023-12-04T05:19:38;31.25;;;15.75;;
43998;SDS011;51319;52.162;5.302;2023-12-04T05:22:09;25.00;;;12.45;;
43998;SDS011;51319;52.162;5.302;2023-12-04T05:24:35;34.30;;;16.13;;
43998;SDS011;51319;52.162;5.302;2023-12-04T05:27:03;32.05;;;15.85;;
43998;SDS011;51319;52.162;5.302;2023-12-04T05:29:30;23.13;;;10.38;;
43998;SDS011;51319;52.162;5.302;2023-12-04T05:31:57;29.73;;;14.55;;
43998;SDS011;51319;52.162;5.302;2023-12-04T05:34:24;32.22;;;14.23;;
43998;SDS011;51319;52.162;5.302;2023-12-04T05:36:51;29.58;;;14.52;;
43998;SDS011;51319;52.162;5.302;2023-12-04T05:39:19;27.25;;;14.00;;
43998;SDS011;51319;52.162;5.302;2023-12-04T05:41:46;30.00;;;14.35;;
43998;SDS011;51319;52.162;5.302;2023-12-04T05:44:13;29.15;;;16.08;;
43998;SDS011;51319;52.162;5.302;2023-12-04T05:46:40;28.10;;;14.52;;
43998;SDS011;51319;52.162;5.302;2023-12-04T05:49:07;28.05;;;15.73;;
43998;SDS011;51319;52.162;5.302;2023-12-04T05:51:37;17.95;;;8.90;;
43998;SDS011;51319;52.162;5.302;2023-12-04T05:54:05;25.00;;;14.07;;
43998;SDS011;51319;52.162;5.302;2023-12-04T05:56:32;24.55;;;12.52;;
43998;SDS011;51319;52.162;5.302;2023-12-04T05:59:03;32.65;;;14.55;;
43998;SDS011;51319;52.162;5.302;2023-12-04T06:01:30;21.45;;;12.18;;
43998;SDS011;51319;52.162;5.302;2023-12-04T06:03:59;27.10;;;13.77;;
43998;SDS011;51319;52.162;5.302;2023-12-04T06:06:28;24.20;;;13.32;;
43998;SDS011;51319;52.162;5.302;2023-12-04T06:08:55;25.90;;;13.85;;
43998;SDS011;51319;52.162;5.302;2023-12-04T06:11:22;27.55;;;13.85;;
43998;SDS011;51319;52.162;5.302;2023-12-04T06:13:50;23.48;;;13.10;;
43998;SDS011;51319;52.162;5.302;2023-12-04T06:16:17;24.02;;;11.93;;
43998;SDS011;51319;52.162;5.302;2023-12-04T06:18:44;25.10;;;12.68;;
43998;SDS011;51319;52.162;5.302;2023-12-04T06:21:11;27.40;;;13.25;;
43998;SDS011;51319;52.162;5.302;2023-12-04T06:23:38;17.67;;;9.18;;
43998;SDS011;51319;52.162;5.302;2023-12-04T06:26:05;23.63;;;13.23;;
43998;SDS011;51319;52.162;5.302;2023-12-04T06:28:32;22.67;;;12.75;;
43998;SDS011;51319;52.162;5.302;2023-12-04T06:30:59;23.77;;;12.55;;
43998;SDS011;51319;52.162;5.302;2023-12-04T06:33:27;20.35;;;11.20;;
43998;SDS011;51319;52.162;5.302;2023-12-04T06:35:55;23.45;;;12.30;;
43998;SDS011;51319;52.162;5.302;2023-12-04T06:38:24;25.73;;;12.32;;
43998;SDS011;51319;52.162;5.302;2023-12-04T06:40:51;25.08;;;12.00;;
43998;SDS011;51319;52.162;5.302;2023-12-04T06:43:19;17.25;;;8.70;;
43998;SDS011;51319;52.162;5.302;2023-12-04T06:45:46;20.45;;;11.70;;
43998;SDS011;51319;52.162;5.302;2023-12-04T06:48:16;20.60;;;12.93;;
43998;SDS011;51319;52.162;5.302;2023-12-04T06:50:44;24.33;;;12.05;;
43998;SDS011;51319;52.162;5.302;2023-12-04T06:53:11;18.90;;;10.98;;
43998;SDS011;51319;52.162;5.302;2023-12-04T06:55:38;17.73;;;8.73;;
43998;SDS011;51319;52.162;5.302;2023-12-04T06:58:05;24.58;;;12.52;;
43998;SDS011;51319;52.162;5.302;2023-12-04T07:00:32;28.90;;;12.05;;
43998;SDS011;51319;52.162;5.302;2023-12-04T07:02:59;10.70;;;4.60;;
43998;SDS011;51319;52.162;5.302;2023-12-04T07:05:26;22.70;;;12.27;;
43998;SDS011;51319;52.162;5.302;2023-12-04T07:07:53;16.65;;;7.60;;
43998;SDS011;51319;52.162;5.302;2023-12-04T07:10:20;14.68;;;7.60;;
43998;SDS011;51319;52.162;5.302;2023-12-04T07:12:47;18.92;;;10.73;;
43998;SDS011;51319;52.162;5.302;2023-12-04T07:15:14;19.00;;;11.07;;
43998;SDS011;51319;52.162;5.302;2023-12-04T07:17:41;23.75;;;12.30;;
43998;SDS011;51319;52.162;5.302;2023-12-04T07:20:08;23.10;;;10.88;;
43998;SDS011;51319;52.162;5.302;2023-12-04T07:22:38;11.18;;;7.00;;
43998;SDS011;51319;52.162;5.302;2023-12-04T07:25:06;40.78;;;18.33;;
43998;SDS011;51319;52.162;5.302;2023-12-04T07:27:36;20.88;;;12.45;;
43998;SDS011;51319;52.162;5.302;2023-12-04T07:30:04;19.40;;;11.05;;
43998;SDS011;51319;52.162;5.302;2023-12-04T07:32:31;18.55;;;10.75;;
43998;SDS011;51319;52.162;5.302;2023-12-04T07:34:59;19.05;;;9.68;;
43998;SDS011;51319;52.162;5.302;2023-12-04T07:37:26;20.08;;;10.65;;
43998;SDS011;51319;52.162;5.302;2023-12-04T07:39:56;18.50;;;10.52;;
43998;SDS011;51319;52.162;5.302;2023-12-04T07:42:23;16.05;;;9.18;;
43998;SDS011;51319;52.162;5.302;2023-12-04T07:44:50;16.58;;;9.65;;
43998;SDS011;51319;52.162;5.302;2023-12-04T07:47:17;17.25;;;10.93;;
43998;SDS011;51319;52.162;5.302;2023-12-04T07:49:44;13.73;;;6.05;;
43998;SDS011;51319;52.162;5.302;2023-12-04T07:52:11;14.73;;;8.32;;
43998;SDS011;51319;52.162;5.302;2023-12-04T07:54:39;18.00;;;10.45;;
43998;SDS011;51319;52.162;5.302;2023-12-04T07:57:06;17.70;;;11.18;;
43998;SDS011;51319;52.162;5.302;2023-12-04T07:59:33;17.30;;;9.65;;
43998;SDS011;51319;52.162;5.302;2023-12-04T08:02:01;17.63;;;10.35;;
43998;SDS011;51319;52.162;5.302;2023-12-04T08:04:28;17.88;;;9.25;;
43998;SDS011;51319;52.162;5.302;2023-12-04T08:06:55;15.52;;;8.10;;
43998;SDS011;51319;52.162;5.302;2023-12-04T08:09:22;16.00;;;9.85;;
43998;SDS011;51319;52.162;5.302;2023-12-04T08:11:49;15.40;;;9.75;;
43998;SDS011;51319;52.162;5.302;2023-12-04T08:14:20;18.02;;;9.55;;
43998;SDS011;51319;52.162;5.302;2023-12-04T08:16:47;12.18;;;6.63;;
43998;SDS011;51319;52.162;5.302;2023-12-04T08:19:15;21.60;;;10.50;;
43998;SDS011;51319;52.162;5.302;2023-12-04T08:21:42;16.33;;;9.05;;
43998;SDS011;51319;52.162;5.302;2023-12-04T08:24:09;13.27;;;7.05;;
43998;SDS011;51319;52.162;5.302;2023-12-04T08:26:36;14.57;;;9.73;;
43998;SDS011;51319;52.162;5.302;2023-12-04T08:29:03;15.75;;;9.43;;
43998;SDS011;51319;52.162;5.302;2023-12-04T08:31:31;16.25;;;9.25;;
43998;SDS011;51319;52.162;5.302;2023-12-04T08:33:58;17.17;;;8.85;;
43998;SDS011;51319;52.162;5.302;2023-12-04T08:36:26;14.38;;;6.18;;
43998;SDS011;51319;52.162;5.302;2023-12-04T08:38:53;22.90;;;12.80;;
43998;SDS011;51319;52.162;5.302;2023-12-04T08:41:20;18.88;;;10.52;;
43998;SDS011;51319;52.162;5.302;2023-12-04T08:43:47;13.48;;;7.63;;
43998;SDS011;51319;52.162;5.302;2023-12-04T08:46:15;15.20;;;8.75;;
43998;SDS011;51319;52.162;5.302;2023-12-04T08:48:42;11.77;;;7.03;;
43998;SDS011;51319;52.162;5.302;2023-12-04T08:51:14;12.82;;;7.70;;
43998;SDS011;51319;52.162;5.302;2023-12-04T08:53:44;13.55;;;8.60;;
43998;SDS011;51319;52.162;5.302;2023-12-04T08:56:11;10.77;;;6.95;;
43998;SDS011;51319;52.162;5.302;2023-12-04T08:58:47;15.57;;;8.80;;
43998;SDS011;51319;52.162;5.302;2023-12-04T09:01:16;14.27;;;8.20;;
43998;SDS011;51319;52.162;5.302;2023-12-04T09:03:44;13.32;;;8.10;;
43998;SDS011;51319;52.162;5.302;2023-12-04T09:06:11;12.55;;;7.60;;
43998;SDS011;51319;52.162;5.302;2023-12-04T09:08:38;15.02;;;7.40;;
43998;SDS011;51319;52.162;5.302;2023-12-04T09:11:15;13.02;;;7.45;;
43998;SDS011;51319;52.162;5.302;2023-12-04T09:13:49;14.68;;;8.05;;
43998;SDS011;51319;52.162;5.302;2023-12-04T09:16:16;10.52;;;6.75;;
43998;SDS011;51319;52.162;5.302;2023-12-04T09:18:43;11.40;;;7.50;;
43998;SDS011;51319;52.162;5.302;2023-12-04T09:21:10;12.68;;;6.78;;
43998;SDS011;51319;52.162;5.302;2023-12-04T09:23:37;14.23;;;7.00;;
43998;SDS011;51319;52.162;5.302;2023-12-04T09:26:04;14.10;;;7.65;;
43998;SDS011;51319;52.162;5.302;2023-12-04T09:28:31;11.30;;;7.70;;
43998;SDS011;51319;52.162;5.302;2023-12-04T09:30:58;11.48;;;6.25;;
43998;SDS011;51319;52.162;5.302;2023-12-04T09:33:26;9.38;;;6.00;;
43998;SDS011;51319;52.162;5.302;2023-12-04T09:35:53;13.70;;;7.10;;
43998;SDS011;51319;52.162;5.302;2023-12-04T09:38:20;13.75;;;7.80;;
43998;SDS011;51319;52.162;5.302;2023-12-04T09:40:47;10.50;;;6.35;;
43998;SDS011;51319;52.162;5.302;2023-12-04T09:43:14;12.90;;;8.10;;
43998;SDS011;51319;52.162;5.302;2023-12-04T09:45:42;10.02;;;6.70;;
43998;SDS011;51319;52.162;5.302;2023-12-04T09:48:09;17.25;;;8.30;;
43998;SDS011;51319;52.162;5.302;2023-12-04T09:50:38;14.57;;;7.03;;
43998;SDS011;51319;52.162;5.302;2023-12-04T09:53:05;12.75;;;8.20;;
43998;SDS011;51319;52.162;5.302;2023-12-04T09:55:36;10.80;;;5.55;;
43998;SDS011;51319;52.162;5.302;2023-12-04T09:58:03;13.07;;;6.65;;
43998;SDS011;51319;52.162;5.302;2023-12-04T10:00:32;12.75;;;7.05;;
43998;SDS011;51319;52.162;5.302;2023-12-04T10:02:59;9.52;;;6.22;;
43998;SDS011;51319;52.162;5.302;2023-12-04T10:05:28;11.98;;;7.10;;
43998;SDS011;51319;52.162;5.302;2023-12-04T10:07:55;10.07;;;7.05;;
43998;SDS011;51319;52.162;5.302;2023-12-04T10:10:22;8.27;;;4.63;;
43998;SDS011;51319;52.162;5.302;2023-12-04T10:12:50;6.38;;;3.58;;
43998;SDS011;51319;52.162;5.302;2023-12-04T10:15:17;10.43;;;6.88;;
43998;SDS011;51319;52.162;5.302;2023-12-04T10:17:44;15.07;;;6.80;;
43998;SDS011;51319;52.162;5.302;2023-12-04T10:20:13;12.05;;;6.43;;
43998;SDS011;51319;52.162;5.302;2023-12-04T10:23:00;12.30;;;7.63;;
43998;SDS011;51319;52.162;5.302;2023-12-04T10:25:29;11.45;;;6.43;;
43998;SDS011;51319;52.162;5.302;2023-12-04T10:28:11;12.40;;;7.10;;
43998;SDS011;51319;52.162;5.302;2023-12-04T10:30:39;13.32;;;7.07;;
43998;SDS011;51319;52.162;5.302;2023-12-04T10:33:06;11.00;;;7.15;;
43998;SDS011;51319;52.162;5.302;2023-12-04T10:35:35;10.63;;;6.70;;
43998;SDS011;51319;52.162;5.302;2023-12-04T10:38:03;10.68;;;6.97;;
43998;SDS011;51319;52.162;5.302;2023-12-04T10:40:31;10.32;;;5.68;;
43998;SDS011;51319;52.162;5.302;2023-12-04T10:43:15;11.90;;;7.25;;
43998;SDS011;51319;52.162;5.302;2023-12-04T10:45:48;10.60;;;6.80;;
43998;SDS011;51319;52.162;5.302;2023-12-04T10:48:16;13.15;;;7.10;;
43998;SDS011;51319;52.162;5.302;2023-12-04T10:50:46;11.27;;;7.28;;
43998;SDS011;51319;52.162;5.302;2023-12-04T10:53:14;11.23;;;7.35;;
43998;SDS011;51319;52.162;5.302;2023-12-04T10:55:43;10.50;;;6.70;;
43998;SDS011;51319;52.162;5.302;2023-12-04T10:58:12;10.75;;;6.28;;
43998;SDS011;51319;52.162;5.302;2023-12-04T11:00:47;10.88;;;7.10;;
43998;SDS011;51319;52.162;5.302;2023-12-04T11:03:19;11.95;;;7.45;;
43998;SDS011;51319;52.162;5.302;2023-12-04T11:05:53;9.60;;;6.85;;
43998;SDS011;51319;52.162;5.302;2023-12-04T11:08:22;11.48;;;6.85;;
43998;SDS011;51319;52.162;5.302;2023-12-04T11:10:56;13.98;;;8.02;;
43998;SDS011;51319;52.162;5.302;2023-12-04T11:13:29;11.18;;;7.57;;
43998;SDS011;51319;52.162;5.302;2023-12-04T11:16:02;14.75;;;7.85;;
43998;SDS011;51319;52.162;5.302;2023-12-04T11:18:36;12.40;;;6.80;;
43998;SDS011;51319;52.162;5.302;2023-12-04T11:21:08;11.10;;;7.10;;
43998;SDS011;51319;52.162;5.302;2023-12-04T11:23:37;13.10;;;8.05;;
43998;SDS011;51319;52.162;5.302;2023-12-04T11:26:06;12.35;;;7.30;;
43998;SDS011;51319;52.162;5.302;2023-12-04T11:28:35;6.78;;;4.13;;
43998;SDS011;51319;52.162;5.302;2023-12-04T11:31:05;12.60;;;7.45;;
43998;SDS011;51319;52.162;5.302;2023-12-04T11:36:18;14.23;;;8.07;;
43998;SDS011;51319;52.162;5.302;2023-12-04T11:38:45;12.40;;;6.57;;
43998;SDS011;51319;52.162;5.302;2023-12-04T11:41:16;13.80;;;7.93;;
43998;SDS011;51319;52.162;5.302;2023-12-04T11:43:55;12.85;;;8.50;;
43998;SDS011;51319;52.162;5.302;2023-12-04T11:48:55;13.40;;;7.35;;
43998;SDS011;51319;52.162;5.302;2023-12-04T11:54:09;12.13;;;6.65;;
43998;SDS011;51319;52.162;5.302;2023-12-04T11:56:36;14.55;;;8.90;;
43998;SDS011;51319;52.162;5.302;2023-12-04T11:59:04;14.93;;;9.57;;
43998;SDS011;51319;52.162;5.302;2023-12-04T12:01:35;21.10;;;9.93;;
43998;SDS011;51319;52.162;5.302;2023-12-04T12:04:08;13.38;;;8.02;;
43998;SDS011;51319;52.162;5.302;2023-12-04T12:06:37;17.60;;;8.82;;
43998;SDS011;51319;52.162;5.302;2023-12-04T12:09:09;14.38;;;7.40;;
43998;SDS011;51319;52.162;5.302;2023-12-04T12:11:52;12.98;;;8.68;;
43998;SDS011;51319;52.162;5.302;2023-12-04T12:14:32;17.15;;;9.60;;
43998;SDS011;51319;52.162;5.302;2023-12-04T12:17:00;16.33;;;9.52;;
43998;SDS011;51319;52.162;5.302;2023-12-04T12:22:25;15.57;;;10.15;;
43998;SDS011;51319;52.162;5.302;2023-12-04T12:24:52;13.55;;;7.78;;
43998;SDS011;51319;52.162;5.302;2023-12-04T12:27:20;15.95;;;8.82;;
43998;SDS011;51319;52.162;5.302;2023-12-04T12:29:47;15.88;;;10.05;;
43998;SDS011;51319;52.162;5.302;2023-12-04T12:32:14;16.10;;;8.63;;
43998;SDS011;51319;52.162;5.302;2023-12-04T12:34:43;13.55;;;7.57;;
43998;SDS011;51319;52.162;5.302;2023-12-04T12:37:10;14.10;;;9.20;;
43998;SDS011;51319;52.162;5.302;2023-12-04T12:39:37;15.65;;;10.35;;
43998;SDS011;51319;52.162;5.302;2023-12-04T12:42:05;15.35;;;9.55;;
43998;SDS011;51319;52.162;5.302;2023-12-04T12:44:39;15.35;;;7.95;;
43998;SDS011;51319;52.162;5.302;2023-12-04T12:47:06;15.43;;;9.85;;
43998;SDS011;51319;52.162;5.302;2023-12-04T12:49:33;15.52;;;9.57;;
43998;SDS011;51319;52.162;5.302;2023-12-04T12:52:07;16.73;;;8.75;;
43998;SDS011;51319;52.162;5.302;2023-12-04T12:54:36;18.42;;;10.82;;
43998;SDS011;51319;52.162;5.302;2023-12-04T12:57:04;15.68;;;9.18;;
43998;SDS011;51319;52.162;5.302;2023-12-04T12:59:32;14.77;;;9.48;;
43998;SDS011;51319;52.162;5.302;2023-12-04T13:02:00;14.98;;;8.73;;
43998;SDS011;51319;52.162;5.302;2023-12-04T13:09:52;9.75;;;5.20;;
43998;SDS011;51319;52.162;5.302;2023-12-04T13:12:19;11.27;;;6.70;;
43998;SDS011;51319;52.162;5.302;2023-12-04T13:14:46;16.88;;;10.38;;
43998;SDS011;51319;52.162;5.302;2023-12-04T13:17:13;12.88;;;7.43;;
43998;SDS011;51319;52.162;5.302;2023-12-04T13:19:40;14.43;;;9.05;;
43998;SDS011;51319;52.162;5.302;2023-12-04T13:22:07;12.77;;;8.07;;
43998;SDS011;51319;52.162;5.302;2023-12-04T13:24:41;17.52;;;9.68;;
43998;SDS011;51319;52.162;5.302;2023-12-04T13:27:08;15.60;;;7.28;;
43998;SDS011;51319;52.162;5.302;2023-12-04T13:29:35;16.50;;;9.68;;
43998;SDS011;51319;52.162;5.302;2023-12-04T13:32:02;14.25;;;9.30;;
43998;SDS011;51319;52.162;5.302;2023-12-04T13:34:31;16.02;;;8.68;;
43998;SDS011;51319;52.162;5.302;2023-12-04T13:36:58;15.05;;;9.43;;
43998;SDS011;51319;52.162;5.302;2023-12-04T13:39:25;13.68;;;8.85;;
43998;SDS011;51319;52.162;5.302;2023-12-04T13:42:10;13.85;;;9.18;;
43998;SDS011;51319;52.162;5.302;2023-12-04T13:44:56;15.25;;;9.07;;
43998;SDS011;51319;52.162;5.302;2023-12-04T13:47:23;17.77;;;9.60;;
43998;SDS011;51319;52.162;5.302;2023-12-04T13:49:50;18.85;;;8.85;;
43998;SDS011;51319;52.162;5.302;2023-12-04T13:55:03;16.42;;;9.02;;
43998;SDS011;51319;52.162;5.302;2023-12-04T13:57:42;15.27;;;9.48;;
43998;SDS011;51319;52.162;5.302;2023-12-04T14:00:42;18.15;;;9.80;;
43998;SDS011;51319;52.162;5.302;2023-12-04T14:03:10;16.35;;;9.90;;
43998;SDS011;51319;52.162;5.302;2023-12-04T14:05:37;16.70;;;9.00;;
43998;SDS011;51319;52.162;5.302;2023-12-04T14:08:05;18.23;;;9.95;;
43998;SDS011;51319;52.162;5.302;2023-12-04T14:10:33;15.52;;;9.55;;
43998;SDS011;51319;52.162;5.302;2023-12-04T14:13:00;16.63;;;10.10;;
43998;SDS011;51319;52.162;5.302;2023-12-04T14:15:27;26.42;;;15.07;;
43998;SDS011;51319;52.162;5.302;2023-12-04T14:17:54;20.23;;;10.77;;
43998;SDS011;51319;52.162;5.302;2023-12-04T14:20:23;13.00;;;6.95;;
43998;SDS011;51319;52.162;5.302;2023-12-04T14:22:52;16.23;;;10.88;;
43998;SDS011;51319;52.162;5.302;2023-12-04T14:25:19;20.35;;;9.50;;
43998;SDS011;51319;52.162;5.302;2023-12-04T14:27:46;21.17;;;11.52;;
43998;SDS011;51319;52.162;5.302;2023-12-04T14:30:14;17.35;;;7.07;;
43998;SDS011;51319;52.162;5.302;2023-12-04T14:32:41;17.00;;;10.27;;
43998;SDS011;51319;52.162;5.302;2023-12-04T14:35:14;16.75;;;9.25;;
43998;SDS011;51319;52.162;5.302;2023-12-04T14:37:42;14.82;;;9.15;;
43998;SDS011;51319;52.162;5.302;2023-12-04T14:40:11;16.88;;;9.05;;
43998;SDS011;51319;52.162;5.302;2023-12-04T14:42:40;20.20;;;9.10;;
43998;SDS011;51319;52.162;5.302;2023-12-04T14:45:07;14.60;;;8.23;;
43998;SDS011;51319;52.162;5.302;2023-12-04T14:47:34;17.88;;;10.15;;
43998;SDS011;51319;52.162;5.302;2023-12-04T14:50:03;14.98;;;9.55;;
43998;SDS011;51319;52.162;5.302;2023-12-04T14:52:30;21.85;;;11.27;;
43998;SDS011;51319;52.162;5.302;2023-12-04T14:55:00;13.45;;;7.47;;